createdAt,value
2022-11-21T00:01:18.183Z,39.60
2022-11-21T00:03:45.988Z,34.45
2022-11-21T00:06:14.027Z,31.55
2022-11-21T00:08:42.236Z,28.17
2022-11-21T00:11:10.026Z,32.40
2022-11-21T00:13:38.711Z,26.90
2022-11-21T00:16:09.014Z,25.05
2022-11-21T00:18:37.175Z,24.05
2022-11-21T00:21:11.635Z,29.23
2022-11-21T00:23:39.645Z,41.47
2022-11-21T00:26:08.700Z,40.03
2022-11-21T00:28:37.040Z,34.20
2022-11-21T00:31:05.849Z,39.75
2022-11-21T00:33:37.039Z,49.30
2022-11-21T00:36:09.630Z,53.55
2022-11-21T00:38:37.942Z,46.70
2022-11-21T00:41:06.824Z,43.67
2022-11-21T00:43:35.018Z,42.80
2022-11-21T00:46:03.522Z,40.88
2022-11-21T00:48:32.447Z,40.78
2022-11-21T00:51:00.952Z,40.70
2022-11-21T00:53:30.194Z,39.75
2022-11-21T00:55:58.491Z,36.47
2022-11-21T00:58:26.644Z,36.92
2022-11-21T01:01:09.743Z,35.00
2022-11-21T01:03:37.739Z,37.47
2022-11-21T01:06:07.961Z,40.25
2022-11-21T01:08:38.410Z,40.25
2022-11-21T01:11:13.086Z,37.95
2022-11-21T01:13:41.520Z,42.35
2022-11-21T01:16:19.338Z,40.42
2022-11-21T01:18:47.696Z,49.75
2022-11-21T01:21:18.641Z,42.22
2022-11-21T01:23:46.985Z,44.22
2022-11-21T01:26:18.231Z,41.00
2022-11-21T01:28:46.287Z,43.15
2022-11-21T01:31:22.725Z,42.17
2022-11-21T01:33:50.764Z,38.70
2022-11-21T01:36:21.415Z,42.10
2022-11-21T01:38:52.183Z,41.97
2022-11-21T01:41:33.904Z,42.22
2022-11-21T01:44:03.562Z,40.67
2022-11-21T01:46:31.125Z,38.90
2022-11-21T01:49:13.714Z,46.58
2022-11-21T01:52:26.043Z,44.38
2022-11-21T01:55:16.690Z,45.05
2022-11-21T01:57:58.101Z,43.33
2022-11-21T02:04:17.827Z,44.13
2022-11-21T02:06:46.185Z,42.20
2022-11-21T02:09:14.255Z,48.95
2022-11-21T02:12:05.888Z,51.90
2022-11-21T02:14:36.136Z,49.75
2022-11-21T02:17:07.833Z,51.70
2022-11-21T02:19:54.383Z,48.38
2022-11-21T02:22:39.892Z,51.05
2022-11-21T02:25:12.164Z,47.55
2022-11-21T02:27:40.457Z,48.97
2022-11-21T02:30:10.192Z,54.03
2022-11-21T02:32:40.843Z,47.78
2022-11-21T02:35:09.675Z,47.40
2022-11-21T02:37:37.925Z,46.78
2022-11-21T02:40:18.697Z,47.60
2022-11-21T02:43:03.909Z,51.97
2022-11-21T02:45:41.287Z,40.47
2022-11-21T02:48:09.437Z,37.92
2022-11-21T02:50:39.952Z,38.42
2022-11-21T02:53:10.113Z,39.72
2022-11-21T02:55:38.557Z,39.28
2022-11-21T02:58:06.726Z,43.83
2022-11-21T03:00:35.860Z,40.45
2022-11-21T03:03:04.137Z,38.67
2022-11-21T03:05:32.398Z,40.63
2022-11-21T03:08:00.047Z,42.58
2022-11-21T03:10:28.240Z,45.75
2022-11-21T03:13:01.490Z,45.95
2022-11-21T03:15:32.203Z,43.38
2022-11-21T03:18:03.305Z,45.25
2022-11-21T03:20:32.365Z,44.58
2022-11-21T03:23:00.072Z,43.72
2022-11-21T03:25:27.830Z,42.13
2022-11-21T03:27:55.959Z,47.75
2022-11-21T03:30:25.501Z,43.78
2022-11-21T03:32:56.134Z,43.13
2022-11-21T03:35:24.729Z,41.25
2022-11-21T03:37:52.800Z,37.55
2022-11-21T03:40:20.674Z,37.42
2022-11-21T03:42:48.274Z,39.35
2022-11-21T03:45:16.085Z,38.08
2022-11-21T03:47:44.020Z,38.42
2022-11-21T03:50:12.659Z,36.05
2022-11-21T03:52:40.402Z,38.05
2022-11-21T03:55:08.376Z,36.78
2022-11-21T03:57:36.054Z,42.65
2022-11-21T04:00:04.363Z,37.67
2022-11-21T04:02:32.223Z,38.00
2022-11-21T04:04:59.888Z,38.45
2022-11-21T04:07:27.651Z,43.95
2022-11-21T04:09:55.681Z,42.13
2022-11-21T04:12:23.262Z,39.80
2022-11-21T04:14:51.395Z,39.60
2022-11-21T04:17:19.345Z,37.33
2022-11-21T04:19:47.093Z,43.20
2022-11-21T04:22:14.753Z,45.60
2022-11-21T04:24:42.392Z,44.95
2022-11-21T04:27:09.921Z,39.53
2022-11-21T04:29:37.464Z,46.13
2022-11-21T04:32:05.451Z,46.53
2022-11-21T04:34:33.159Z,49.33
2022-11-21T04:37:00.974Z,49.45
2022-11-21T04:39:28.766Z,49.28
2022-11-21T04:41:56.792Z,40.40
2022-11-21T04:44:24.563Z,39.33
2022-11-21T04:46:53.377Z,42.58
2022-11-21T04:49:21.002Z,37.80
2022-11-21T04:51:48.579Z,36.80
2022-11-21T04:54:16.108Z,39.35
2022-11-21T04:56:43.791Z,37.30
2022-11-21T04:59:12.803Z,34.85
2022-11-21T05:01:40.723Z,37.35
2022-11-21T05:04:08.444Z,34.75
2022-11-21T05:06:36.420Z,36.33
2022-11-21T05:09:04.678Z,35.67
2022-11-21T05:11:51.261Z,38.72
2022-11-21T05:14:19.015Z,35.13
2022-11-21T05:16:46.791Z,39.42
2022-11-21T05:19:14.620Z,39.50
2022-11-21T05:21:42.643Z,48.75
2022-11-21T05:24:10.438Z,46.95
2022-11-21T05:26:38.720Z,40.53
2022-11-21T05:29:07.407Z,39.35
2022-11-21T05:31:35.068Z,36.00
2022-11-21T05:34:02.594Z,34.28
2022-11-21T05:36:30.373Z,39.33
2022-11-21T05:38:58.628Z,42.85
2022-11-21T05:41:26.411Z,41.45
2022-11-21T05:43:54.198Z,34.67
2022-11-21T05:46:25.262Z,38.92
2022-11-21T05:48:54.770Z,37.90
2022-11-21T05:51:22.896Z,47.87
2022-11-21T05:53:51.181Z,43.70
2022-11-21T05:56:19.928Z,43.08
2022-11-21T05:58:48.045Z,42.15
2022-11-21T06:01:16.059Z,39.47
2022-11-21T06:03:43.910Z,38.05
2022-11-21T06:06:14.349Z,59.58
2022-11-21T06:08:44.723Z,56.88
2022-11-21T06:13:43.307Z,46.97
2022-11-21T06:16:13.898Z,44.33
2022-11-21T06:21:15.392Z,56.20
2022-11-21T06:23:43.368Z,66.20
2022-11-21T06:26:16.611Z,64.22
2022-11-21T06:28:45.828Z,57.30
2022-11-21T06:31:16.327Z,43.70
2022-11-21T06:33:45.376Z,58.75
2022-11-21T06:36:15.292Z,61.75
2022-11-21T06:38:44.260Z,58.00
2022-11-21T06:41:13.353Z,38.60
2022-11-21T06:43:41.804Z,40.13
2022-11-21T06:46:10.257Z,39.15
2022-11-21T06:48:38.684Z,36.83
2022-11-21T06:51:13.749Z,39.75
2022-11-21T06:53:41.772Z,40.00
2022-11-21T06:56:09.585Z,60.95
2022-11-21T06:58:37.573Z,36.45
2022-11-21T07:01:07.247Z,38.15
2022-11-21T07:03:35.559Z,41.97
2022-11-21T07:06:04.104Z,39.20
2022-11-21T07:08:33.967Z,44.03
2022-11-21T07:11:24.078Z,37.47
2022-11-21T07:13:51.516Z,41.60
2022-11-21T07:16:19.170Z,44.15
2022-11-21T07:18:46.893Z,53.30
2022-11-21T07:21:14.829Z,42.13
2022-11-21T07:23:42.609Z,37.17
2022-11-21T07:26:11.472Z,41.40
2022-11-21T07:28:39.641Z,39.33
2022-11-21T07:31:13.462Z,52.15
2022-11-21T07:33:43.796Z,41.75
2022-11-21T07:36:13.042Z,34.65
2022-11-21T07:38:42.153Z,36.20
2022-11-21T07:41:10.360Z,45.22
2022-11-21T07:43:38.272Z,34.08
2022-11-21T07:46:06.072Z,31.00
2022-11-21T07:48:34.033Z,31.13
2022-11-21T07:51:05.392Z,28.25
2022-11-21T07:53:33.323Z,24.48
2022-11-21T07:56:01.696Z,26.25
2022-11-21T07:58:29.325Z,27.90
2022-11-21T08:00:57.360Z,29.42
2022-11-21T08:03:25.800Z,28.35
2022-11-21T08:05:53.646Z,27.00
2022-11-21T08:08:21.372Z,33.42
2022-11-21T08:10:49.274Z,36.42
2022-11-21T08:13:17.260Z,38.13
2022-11-21T08:15:45.265Z,27.77
2022-11-21T08:18:20.738Z,32.17
2022-11-21T08:20:48.820Z,28.80
2022-11-21T08:23:17.678Z,27.15
2022-11-21T08:25:45.475Z,26.27
2022-11-21T08:28:13.503Z,33.10
2022-11-21T08:30:41.780Z,31.35
2022-11-21T08:33:09.856Z,32.70
2022-11-21T08:35:42.698Z,30.48
2022-11-21T08:38:11.351Z,40.95
2022-11-21T08:40:40.864Z,32.58
2022-11-21T08:43:10.291Z,42.30
2022-11-21T08:45:39.532Z,48.22
2022-11-21T08:48:14.701Z,43.38
2022-11-21T08:50:42.546Z,42.95
2022-11-21T08:53:10.573Z,42.00
2022-11-21T08:55:38.380Z,37.75
2022-11-21T08:58:06.085Z,39.17
2022-11-21T09:00:34.135Z,36.28
2022-11-21T09:03:06.098Z,32.03
2022-11-21T09:05:34.462Z,32.72
2022-11-21T09:08:02.353Z,30.83
2022-11-21T09:10:30.228Z,48.08
2022-11-21T09:12:59.333Z,57.22
2022-11-21T09:15:45.741Z,40.75
2022-11-21T09:18:14.051Z,34.13
2022-11-21T09:20:45.056Z,35.47
2022-11-21T09:23:15.203Z,26.02
2022-11-21T09:25:44.053Z,31.38
2022-11-21T09:28:13.860Z,32.75
2022-11-21T09:30:43.467Z,29.02
2022-11-21T09:33:14.885Z,28.63
2022-11-21T09:35:43.257Z,31.50
2022-11-21T09:38:11.302Z,33.42
2022-11-21T09:40:45.645Z,28.10
2022-11-21T09:43:36.758Z,21.83
2022-11-21T09:46:14.088Z,30.77
2022-11-21T09:49:11.690Z,28.40
2022-11-21T09:51:42.204Z,22.10
2022-11-21T09:56:53.109Z,24.17
2022-11-21T09:59:34.504Z,21.85
2022-11-21T10:02:11.413Z,19.75
2022-11-21T10:04:43.065Z,20.88
2022-11-21T10:07:23.509Z,20.27
2022-11-21T10:10:13.249Z,19.45
2022-11-21T10:12:46.499Z,19.30
2022-11-21T10:15:33.256Z,31.58
2022-11-21T10:18:22.689Z,25.70
2022-11-21T10:21:25.025Z,32.10
2022-11-21T10:24:17.980Z,23.55
2022-11-21T10:26:57.198Z,22.20
2022-11-21T10:29:25.650Z,29.33
2022-11-21T10:31:58.209Z,25.35
2022-11-21T10:34:31.450Z,21.33
2022-11-21T10:37:18.637Z,23.23
2022-11-21T10:39:51.377Z,23.48
2022-11-21T10:42:49.098Z,25.73
2022-11-21T10:45:17.480Z,22.02
2022-11-21T10:47:55.218Z,22.45
2022-11-21T10:50:38.785Z,24.92
2022-11-21T10:53:27.562Z,27.67
2022-11-21T10:56:02.480Z,23.75
2022-11-21T10:58:52.847Z,26.00
2022-11-21T11:01:31.199Z,20.35
2022-11-21T11:04:26.689Z,18.92
2022-11-21T11:06:55.996Z,19.48
2022-11-21T11:09:23.637Z,18.90
2022-11-21T11:11:52.106Z,17.10
2022-11-21T11:14:32.514Z,20.08
2022-11-21T11:17:00.197Z,16.25
2022-11-21T11:19:38.491Z,18.02
2022-11-21T11:22:28.983Z,16.60
2022-11-21T11:25:00.417Z,18.65
2022-11-21T11:27:30.231Z,19.75
2022-11-21T11:30:05.886Z,20.48
2022-11-21T11:32:39.038Z,20.05
2022-11-21T11:35:23.064Z,22.08
2022-11-21T11:38:04.535Z,25.23
2022-11-21T11:40:44.891Z,25.73
2022-11-21T11:43:47.175Z,23.65
2022-11-21T11:46:34.641Z,20.80
2022-11-21T11:49:20.904Z,21.67
2022-11-21T11:51:55.786Z,19.08
2022-11-21T11:54:47.109Z,20.45
2022-11-21T11:57:15.335Z,22.05
2022-11-21T11:59:50.451Z,19.27
2022-11-21T12:02:29.832Z,17.98
2022-11-21T12:05:10.903Z,19.38
2022-11-21T12:11:11.502Z,22.90
2022-11-21T12:13:41.747Z,20.55
2022-11-21T12:16:14.287Z,24.02
2022-11-21T12:18:56.926Z,22.95
2022-11-21T12:21:25.385Z,25.23
2022-11-21T12:23:55.929Z,27.95
2022-11-21T12:26:32.558Z,30.55
2022-11-21T12:29:13.026Z,31.80
2022-11-21T12:32:22.865Z,37.72
2022-11-21T12:35:15.646Z,29.15
2022-11-21T12:38:48.341Z,35.80
2022-11-21T12:42:03.233Z,30.60
2022-11-21T12:45:09.646Z,28.27
2022-11-21T12:48:34.205Z,28.98
2022-11-21T12:51:36.395Z,35.17
2022-11-21T12:54:31.456Z,32.72
2022-11-21T12:57:12.112Z,32.60
2022-11-21T13:00:14.911Z,34.80
2022-11-21T13:03:13.389Z,31.30
2022-11-21T13:05:47.087Z,42.40
2022-11-21T13:08:21.270Z,38.65
2022-11-21T13:11:22.697Z,35.38
2022-11-21T13:13:59.680Z,26.75
2022-11-21T13:16:38.188Z,29.25
2022-11-21T13:19:44.822Z,35.92
2022-11-21T13:22:50.522Z,33.65
2022-11-21T13:25:34.199Z,31.80
2022-11-21T13:28:14.552Z,37.28
2022-11-21T13:31:00.863Z,35.67
2022-11-21T13:33:37.756Z,41.55
2022-11-21T13:36:35.353Z,39.50
2022-11-21T13:39:03.781Z,41.10
2022-11-21T13:41:53.087Z,43.40
2022-11-21T13:44:33.133Z,36.50
2022-11-21T13:47:11.497Z,33.55
2022-11-21T13:50:04.285Z,36.13
2022-11-21T13:52:50.055Z,33.95
2022-11-21T13:55:51.890Z,40.17
2022-11-21T13:58:43.947Z,37.42
2022-11-21T14:01:33.437Z,34.17
2022-11-21T14:04:32.085Z,39.13
2022-11-21T14:07:22.567Z,35.08
2022-11-21T14:12:30.004Z,38.75
2022-11-21T14:15:05.085Z,36.20
2022-11-21T14:17:52.292Z,37.75
2022-11-21T14:20:25.491Z,38.42
2022-11-21T14:23:02.483Z,40.60
2022-11-21T14:25:37.894Z,40.40
2022-11-21T14:28:09.661Z,39.45
2022-11-21T14:30:40.513Z,39.15
2022-11-21T14:33:28.557Z,39.35
2022-11-21T14:35:59.351Z,36.58
2022-11-21T14:38:30.952Z,40.00
2022-11-21T14:41:24.274Z,41.33
2022-11-21T14:44:12.887Z,41.42
2022-11-21T14:46:42.938Z,41.50
2022-11-21T14:49:17.099Z,42.13
2022-11-21T14:52:05.167Z,40.55
2022-11-21T14:55:29.776Z,42.42
2022-11-21T14:57:49.233Z,44.15
2022-11-21T15:00:58.757Z,45.83
2022-11-21T15:03:21.561Z,46.35
2022-11-21T15:06:07.252Z,44.63
2022-11-21T15:11:32.828Z,46.13
2022-11-21T15:16:57.107Z,45.92
2022-11-21T15:19:27.955Z,45.58
2022-11-21T15:21:58.408Z,44.92
2022-11-21T15:24:37.906Z,47.75
2022-11-21T15:27:24.417Z,40.40
2022-11-21T15:30:23.163Z,50.58
2022-11-21T15:33:19.397Z,49.38
2022-11-21T15:35:54.694Z,50.20
2022-11-21T15:38:31.795Z,54.13
2022-11-21T15:41:10.627Z,54.75
2022-11-21T15:43:46.104Z,58.88
2022-11-21T15:46:38.139Z,51.25
2022-11-21T15:49:31.432Z,55.50
2022-11-21T15:52:11.019Z,52.30
2022-11-21T15:54:40.304Z,50.08
2022-11-21T15:57:10.023Z,49.50
2022-11-21T15:57:15.300Z,44.83
2022-11-21T15:59:38.154Z,47.97
2022-11-21T16:02:06.445Z,46.33
2022-11-21T16:04:34.357Z,45.72
2022-11-21T16:07:02.787Z,41.75
2022-11-21T16:09:31.090Z,41.65
2022-11-21T16:11:59.677Z,38.30
2022-11-21T16:14:27.500Z,39.88
2022-11-21T16:16:56.428Z,36.30
2022-11-21T16:19:25.614Z,36.38
2022-11-21T16:21:53.914Z,31.40
2022-11-21T16:24:22.064Z,35.22
2022-11-21T16:26:53.726Z,34.92
2022-11-21T16:29:22.503Z,32.72
2022-11-21T16:31:51.478Z,34.92
2022-11-21T16:34:20.520Z,34.92
2022-11-21T16:36:50.462Z,32.50
2022-11-21T16:39:19.828Z,33.13
2022-11-21T16:41:50.965Z,28.17
2022-11-21T16:44:19.792Z,28.92
2022-11-21T16:46:49.792Z,29.48
2022-11-21T16:49:18.906Z,28.65
2022-11-21T16:51:47.228Z,31.08
2022-11-21T16:54:16.005Z,27.02
2022-11-21T16:56:44.404Z,26.98
2022-11-21T16:59:12.761Z,27.55
2022-11-21T17:01:41.084Z,27.88
2022-11-21T17:04:15.620Z,26.35
2022-11-21T17:06:47.177Z,27.85
2022-11-21T17:09:17.695Z,29.90
2022-11-21T17:14:14.632Z,28.40
2022-11-21T17:16:42.935Z,37.45
2022-11-21T17:19:12.612Z,35.15
2022-11-21T17:21:40.837Z,41.55
2022-11-21T17:24:09.653Z,72.22
2022-11-21T17:26:40.518Z,67.53
2022-11-21T17:29:09.960Z,60.92
2022-11-21T17:31:38.744Z,46.88
2022-11-21T17:34:08.371Z,66.13
2022-11-21T17:36:36.592Z,69.70
2022-11-21T17:39:04.736Z,69.90
2022-11-21T17:41:33.224Z,62.17
2022-11-21T17:44:02.133Z,39.78
2022-11-21T17:46:31.603Z,40.25
2022-11-21T17:49:00.208Z,35.47
2022-11-21T17:51:32.592Z,49.58
2022-11-21T17:54:02.344Z,50.15
2022-11-21T17:56:39.850Z,39.65
2022-11-21T17:59:13.716Z,60.30
2022-11-21T18:01:41.841Z,44.20
2022-11-21T18:04:14.884Z,56.80
2022-11-21T18:06:43.609Z,57.28
2022-11-21T18:09:12.395Z,54.05
2022-11-21T18:11:40.801Z,55.10
2022-11-21T18:14:11.013Z,50.08
2022-11-21T18:16:44.724Z,50.38
2022-11-21T18:19:16.198Z,51.83
2022-11-21T18:21:44.427Z,53.50
2022-11-21T18:24:12.656Z,55.75
2022-11-21T18:26:40.886Z,51.70
2022-11-21T18:29:35.179Z,58.67
2022-11-21T18:31:58.768Z,55.43
2022-11-21T18:34:27.352Z,59.10
2022-11-21T18:36:56.158Z,55.15
2022-11-21T18:39:25.521Z,50.05
2022-11-21T18:41:53.908Z,51.88
2022-11-21T18:44:22.908Z,57.42
2022-11-21T18:46:51.389Z,50.33
2022-11-21T18:49:19.391Z,49.88
2022-11-21T18:51:48.403Z,49.28
2022-11-21T18:54:17.316Z,55.58
2022-11-21T18:56:47.014Z,52.33
2022-11-21T18:59:18.164Z,52.30
2022-11-21T19:01:46.809Z,51.75
2022-11-21T19:04:15.210Z,55.22
2022-11-21T19:06:43.430Z,54.45
2022-11-21T19:09:12.099Z,48.50
2022-11-21T19:11:41.752Z,57.35
2022-11-21T19:14:09.998Z,67.33
2022-11-21T19:16:38.536Z,67.82
2022-11-21T19:19:33.691Z,53.25
2022-11-21T19:22:01.427Z,49.38
2022-11-21T19:24:29.979Z,50.25
2022-11-21T19:26:58.667Z,50.08
2022-11-21T19:29:27.090Z,43.90
2022-11-21T19:31:56.659Z,45.42
2022-11-21T19:34:25.778Z,48.33
2022-11-21T19:36:54.659Z,45.60
2022-11-21T19:39:22.952Z,45.67
2022-11-21T19:41:51.601Z,43.53
2022-11-21T19:44:21.149Z,46.60
2022-11-21T19:46:50.299Z,48.63
2022-11-21T19:49:20.156Z,49.85
2022-11-21T19:51:48.385Z,54.45
2022-11-21T19:54:17.172Z,56.63
2022-11-21T19:56:45.803Z,51.45
2022-11-21T19:59:15.389Z,56.10
2022-11-21T20:01:49.449Z,51.73
2022-11-21T20:04:20.970Z,58.00
2022-11-21T20:06:52.050Z,55.22
2022-11-21T20:09:25.187Z,57.10
2022-11-21T20:11:54.114Z,62.15
2022-11-21T20:14:23.121Z,60.40
2022-11-21T20:16:53.499Z,58.35
2022-11-21T20:19:24.422Z,56.30
2022-11-21T20:21:54.544Z,57.33
2022-11-21T20:24:23.024Z,62.70
2022-11-21T20:26:54.737Z,60.80
2022-11-21T20:29:23.158Z,59.13
2022-11-21T20:31:51.370Z,59.13
2022-11-21T20:34:19.613Z,57.97
2022-11-21T20:36:47.723Z,54.92
2022-11-21T20:39:18.206Z,53.40
2022-11-21T20:41:47.732Z,52.47
2022-11-21T20:47:10.238Z,49.47
2022-11-21T20:49:38.606Z,49.30
2022-11-21T20:54:55.459Z,39.78
2022-11-21T20:57:24.240Z,56.15
2022-11-21T20:59:53.049Z,50.45
2022-11-21T21:02:21.245Z,45.22
2022-11-21T21:04:49.582Z,49.05
2022-11-21T21:07:17.980Z,50.33
2022-11-21T21:09:46.455Z,46.78
2022-11-21T21:12:14.807Z,57.78
2022-11-21T21:14:42.853Z,48.78
2022-11-21T21:17:10.730Z,47.13
2022-11-21T21:19:38.560Z,42.88
2022-11-21T21:22:06.462Z,43.75
2022-11-21T21:24:35.161Z,34.42
2022-11-21T21:27:03.248Z,37.03
2022-11-21T21:29:31.499Z,43.75
2022-11-21T21:31:59.841Z,42.50
2022-11-21T21:34:28.973Z,37.78
2022-11-21T21:36:57.142Z,41.72
2022-11-21T21:39:25.682Z,40.80
2022-11-21T21:41:54.096Z,36.92
2022-11-21T21:44:25.005Z,38.92
2022-11-21T21:46:56.283Z,39.30
2022-11-21T21:49:24.758Z,41.13
2022-11-21T21:51:53.899Z,36.30
2022-11-21T21:54:21.822Z,38.22
2022-11-21T21:56:50.245Z,35.28
2022-11-21T21:59:20.022Z,33.67
2022-11-21T22:01:48.505Z,34.97
2022-11-21T22:04:16.971Z,29.48
2022-11-21T22:06:44.962Z,30.00
2022-11-21T22:09:12.820Z,31.25
2022-11-21T22:11:40.939Z,34.88
2022-11-21T22:14:13.286Z,33.03
2022-11-21T22:16:42.205Z,32.33
2022-11-21T22:19:10.041Z,38.67
2022-11-21T22:21:38.672Z,33.97
2022-11-21T22:24:28.709Z,34.20
2022-11-21T22:26:56.574Z,33.35
2022-11-21T22:29:24.815Z,30.88
2022-11-21T22:31:53.281Z,31.75
2022-11-21T22:34:21.867Z,30.20
2022-11-21T22:36:50.175Z,43.78
2022-11-21T22:39:18.562Z,42.83
2022-11-21T22:41:47.567Z,43.53
2022-11-21T22:44:16.684Z,41.35
2022-11-21T22:46:44.653Z,50.60
2022-11-21T22:49:12.898Z,56.33
2022-11-21T22:51:40.597Z,50.63
2022-11-21T22:54:08.426Z,50.78
2022-11-21T22:56:36.548Z,53.92
2022-11-21T22:59:04.348Z,54.40
2022-11-21T23:01:34.556Z,52.60
2022-11-21T23:04:02.322Z,48.63
2022-11-21T23:06:30.209Z,47.78
2022-11-21T23:08:58.186Z,45.65
2022-11-21T23:11:28.432Z,42.40
2022-11-21T23:13:57.209Z,43.78
2022-11-21T23:16:25.943Z,38.58
2022-11-21T23:18:55.272Z,39.72
2022-11-21T23:21:23.270Z,36.17
2022-11-21T23:23:50.944Z,39.03
2022-11-21T23:26:19.052Z,37.65
2022-11-21T23:28:46.797Z,33.72
2022-11-21T23:31:14.466Z,37.20
2022-11-21T23:33:42.318Z,38.97
2022-11-21T23:36:10.051Z,38.22
2022-11-21T23:38:38.052Z,36.42
2022-11-21T23:41:05.904Z,36.25
2022-11-21T23:43:33.651Z,38.88
2022-11-21T23:46:03.487Z,37.63
2022-11-21T23:48:31.237Z,35.67
2022-11-21T23:50:58.792Z,35.03
2022-11-21T23:53:26.501Z,35.15
2022-11-21T23:55:54.190Z,30.17
2022-11-21T23:58:22.024Z,33.67
